Powell Butte, OR (97753)

11:21 AM PDT on September 04, 2015 (GMT -0700)
Powell Butte | | Change Station
CLOSE
Current Station
Personal Weather Station
Location: Powell Butte, OR
Elevation: 3219 ft
Nearby Weather Stations

Elev 3219 ft 44.25 °N, 120.97 °W | Updated 11 minutes ago

Partly Cloudy
Partly Cloudy
56.7 °F
Feels Like 56.7 °F
N
0.0
Wind Variable Wind from SSE
Gusts 0.0 mph

Today
High -- | Low -- °F
--% Chance of Precip.
Yesterday
High -- | Low -- °F
Precip. -- in
6:30 AM 7:35 PM
Waning Gibbous, 57% visible
Pressure 29.91 in
Visibility 10.0 miles
Clouds Scattered Clouds 9000 ft
Dew Point 42 °F
Humidity 58%
Rainfall in
Snow Depth Not available.
UV 5 out of 12
Pollen 5.00 out of 12
Air Quality Not available.
Flu Activity Not available.
METAR KRDM 041756Z 36009KT 10SM SCT090 13/03 A2992 RMK AO2 SLP128 T01280028 10128 21006 58009
Pressure 29.91 in
Visibility 10.0 miles
Clouds Scattered Clouds 9000 ft
Dew Point 42 °F
Humidity 58%
Rainfall in
Snow Depth Not available.
UV 5 out of 12
Pollen 5.00 out of 12
Air Quality Not available.
Flu Activity Not available.
METAR KRDM 041756Z 36009KT 10SM SCT090 13/03 A2992 RMK AO2 SLP128 T01280028 10128 21006 58009

10-Day Weather Forecast

×

Almanac

Astronomy

Sep. 04, 2015 Rise Set
Actual Time
Civil Twilight
Nautical Twilight
Astronomical Twilight
Moon
Length of Visible Light
Length of Day
Tomorrow will be .
, % of the Moon is Illuminated

Today's Extremes

State Highs State Lows

Community

WunderPhotos

Upload Photos

1,852,251 photos uploaded!

WunderBlogs® & News

Nearby

Air Quality

  Air Quality AQ Index Pollutant
Not available.

Snow Depth

Station Depth Elevation

Earthquake Activity

City Distance Mag. Time & Date
Minimum magnitude displayed is 2.5.

Coastal Water Temperatures

Place Temperature

Stations

Nearby Weather Stations

Station Location Temp. Windchill Dew Point Humidity Wind Precip. Elev Updated Type